Time;durP1;ratioP1;P1;durP2;ratioP2;P2;SDS_P1;SDS_P2;PMS_P1;PMS_P2;Temp;Humidity;BMP_temperature;BMP_pressure;BME280_temperature;BME280_humidity;BME280_pressure;Samples;Min_cycle;Max_cycle;Signal;HPM_P1;HPM_P2
2023/11/17 00:00:39;;;;;;;4.20;3.72;;;7.70;99.90;;;;;;5061086;28;20298;-83
2023/11/17 00:03:10;;;;;;;4.78;4.47;;;7.70;99.90;;;;;;5074210;28;20228;-82
2023/11/17 00:05:40;;;;;;;4.90;4.20;;;7.70;99.90;;;;;;5066199;28;20653;-82
2023/11/17 00:08:07;;;;;;;4.88;4.47;;;7.70;99.90;;;;;;5073293;28;20224;-83
2023/11/17 00:10:34;;;;;;;5.30;4.82;;;7.70;99.90;;;;;;5072787;28;20224;-83
2023/11/17 00:13:01;;;;;;;5.20;4.75;;;7.70;99.90;;;;;;5074224;28;20250;-83
2023/11/17 00:15:29;;;;;;;5.30;4.63;;;7.70;99.90;;;;;;5076506;28;20293;-83
2023/11/17 00:17:58;;;;;;;4.80;4.43;;;7.70;99.90;;;;;;5077178;28;20220;-83
2023/11/17 00:20:25;;;;;;;3.72;3.40;;;7.70;99.90;;;;;;5077105;28;20216;-83
2023/11/17 00:22:52;;;;;;;3.97;3.50;;;7.70;99.90;;;;;;5077209;28;20307;-83
2023/11/17 00:25:19;;;;;;;3.90;3.53;;;7.70;99.90;;;;;;5076751;28;20215;-83
2023/11/17 00:27:46;;;;;;;4.90;4.13;;;7.70;99.90;;;;;;5078478;28;20228;-81
2023/11/17 00:30:14;;;;;;;4.22;3.83;;;7.70;99.90;;;;;;5076444;28;20231;-83
2023/11/17 00:32:41;;;;;;;3.83;3.53;;;7.70;99.90;;;;;;5076454;28;20228;-82
2023/11/17 00:35:25;;;;;;;4.13;3.83;;;7.70;99.90;;;;;;5076459;28;20307;-83
2023/11/17 00:37:52;;;;;;;4.68;3.35;;;7.70;99.90;;;;;;5077616;28;20226;-85
2023/11/17 00:40:19;;;;;;;4.32;4.00;;;7.70;99.90;;;;;;5075873;28;20223;-82
2023/11/17 00:42:46;;;;;;;3.75;3.45;;;7.80;99.90;;;;;;5076280;28;20783;-82
2023/11/17 00:45:13;;;;;;;4.18;3.78;;;7.80;99.90;;;;;;5075492;28;20225;-82
2023/11/17 00:47:40;;;;;;;5.43;5.03;;;7.80;99.90;;;;;;5076409;28;20248;-82
2023/11/17 00:50:11;;;;;;;4.60;4.20;;;7.80;99.90;;;;;;5075447;28;20243;-82
2023/11/17 00:52:40;;;;;;;4.60;4.20;;;7.80;99.90;;;;;;5076026;28;20235;-82
2023/11/17 00:55:08;;;;;;;4.30;3.95;;;7.90;99.90;;;;;;5075416;28;20235;-83
2023/11/17 00:57:35;;;;;;;4.50;4.03;;;7.90;99.90;;;;;;5067901;28;20624;-84
2023/11/17 01:00:02;;;;;;;3.55;3.25;;;7.90;99.90;;;;;;5075724;28;20224;-83
2023/11/17 01:02:29;;;;;;;4.18;3.88;;;7.90;99.90;;;;;;5076113;28;20862;-84
2023/11/17 01:05:00;;;;;;;3.47;3.22;;;7.90;99.90;;;;;;5076007;28;20310;-82
2023/11/17 01:07:27;;;;;;;3.53;3.22;;;7.90;99.90;;;;;;5067324;28;20298;-80
2023/11/17 01:09:55;;;;;;;3.80;3.40;;;7.90;99.90;;;;;;5075780;28;20568;-81
2023/11/17 01:12:22;;;;;;;5.05;3.40;;;7.90;99.90;;;;;;5075377;28;20315;-82
2023/11/17 01:14:49;;;;;;;3.45;3.22;;;7.90;99.90;;;;;;5075885;28;20303;-82
2023/11/17 01:17:16;;;;;;;3.35;3.05;;;7.90;99.90;;;;;;5075404;28;20224;-85
2023/11/17 01:19:45;;;;;;;5.70;4.22;;;8.00;99.90;;;;;;5056976;28;20263;-82
2023/11/17 01:22:12;;;;;;;3.95;3.65;;;8.00;99.90;;;;;;5054873;28;20247;-82
2023/11/17 01:24:39;;;;;;;3.95;3.55;;;8.00;99.90;;;;;;5055302;28;20236;-82
2023/11/17 01:27:08;;;;;;;3.35;3.05;;;8.00;99.90;;;;;;5055218;28;20225;-82
2023/11/17 01:29:35;;;;;;;4.53;4.13;;;8.00;99.90;;;;;;5054870;28;20722;-84
2023/11/17 01:32:02;;;;;;;5.15;3.30;;;8.00;99.90;;;;;;5047948;28;20233;-82
2023/11/17 01:34:29;;;;;;;4.32;4.03;;;8.00;99.90;;;;;;5053942;28;20324;-84
2023/11/17 01:36:56;;;;;;;5.18;4.50;;;8.00;99.90;;;;;;5060903;28;20695;-84
2023/11/17 01:39:24;;;;;;;3.08;2.88;;;8.00;99.90;;;;;;5074994;28;20224;-84
2023/11/17 01:41:50;;;;;;;3.70;3.40;;;8.00;99.90;;;;;;5074863;28;20232;-82
2023/11/17 01:44:21;;;;;;;3.10;2.67;;;8.10;99.90;;;;;;5074800;28;20215;-81
2023/11/17 01:46:51;;;;;;;3.85;3.55;;;8.10;99.90;;;;;;5075070;28;20462;-84
2023/11/17 01:49:18;;;;;;;3.85;3.50;;;8.10;99.90;;;;;;5074725;28;20228;-82
2023/11/17 01:51:45;;;;;;;4.25;3.85;;;8.10;99.90;;;;;;5075113;28;20558;-82
2023/11/17 01:54:12;;;;;;;3.67;3.28;;;8.10;99.90;;;;;;5074693;28;20232;-84
2023/11/17 01:56:39;;;;;;;3.22;3.03;;;8.10;99.90;;;;;;5074413;28;20322;-82
2023/11/17 01:59:06;;;;;;;2.90;2.70;;;8.00;99.90;;;;;;5074396;28;20299;-83
2023/11/17 02:01:35;;;;;;;3.08;2.80;;;8.10;99.90;;;;;;5066407;28;20681;-83
2023/11/17 02:04:03;;;;;;;3.53;3.22;;;8.10;99.90;;;;;;5075043;28;20280;-83
2023/11/17 02:06:42;;;;;;;3.50;2.92;;;8.10;99.90;;;;;;5074463;28;20242;-83
2023/11/17 02:09:21;;;;;;;4.93;3.30;;;8.10;99.90;;;;;;5074514;28;20724;-81
2023/11/17 02:12:00;;;;;;;5.07;4.68;;;8.10;99.90;;;;;;5075497;28;20613;-83
2023/11/17 02:14:36;;;;;;;2.40;2.20;;;8.10;99.90;;;;;;5075141;28;20565;-84
2023/11/17 02:17:08;;;;;;;4.35;3.88;;;8.10;99.90;;;;;;5073656;28;20234;-84
2023/11/17 02:19:43;;;;;;;7.38;4.05;;;8.10;99.90;;;;;;5074698;28;20303;-84
2023/11/17 02:22:16;;;;;;;3.13;2.92;;;8.10;99.90;;;;;;5072981;28;20219;-81
2023/11/17 02:24:52;;;;;;;2.80;2.60;;;8.10;99.90;;;;;;5074458;28;20227;-84
2023/11/17 02:27:27;;;;;;;4.60;4.28;;;8.20;99.90;;;;;;5055293;28;20224;-84
2023/11/17 02:30:02;;;;;;;3.08;2.60;;;8.20;99.90;;;;;;5061101;28;20613;-82
2023/11/17 02:32:30;;;;;;;3.50;3.20;;;8.10;99.90;;;;;;5074388;28;20227;-84
2023/11/17 02:34:58;;;;;;;3.10;2.85;;;8.10;99.90;;;;;;5073212;28;20336;-81
2023/11/17 02:37:25;;;;;;;5.57;4.65;;;8.10;99.90;;;;;;5073928;28;20254;-81
2023/11/17 02:39:55;;;;;;;3.40;3.10;;;8.10;99.90;;;;;;5073965;28;20299;-81
2023/11/17 02:42:24;;;;;;;5.00;3.70;;;8.10;99.90;;;;;;5073787;28;20227;-84
2023/11/17 02:44:51;;;;;;;3.63;3.33;;;8.10;99.90;;;;;;5073786;28;20293;-84
2023/11/17 02:47:27;;;;;;;3.30;2.80;;;8.10;99.90;;;;;;5073571;28;20246;-84
2023/11/17 02:50:00;;;;;;;3.45;3.15;;;8.10;99.90;;;;;;5073901;28;20228;-81
2023/11/17 02:52:42;;;;;;;3.42;3.22;;;8.10;99.90;;;;;;5073292;28;20251;-83
2023/11/17 02:55:13;;;;;;;5.72;4.40;;;8.10;99.90;;;;;;5072373;28;20285;-81
2023/11/17 02:57:42;;;;;;;4.35;3.70;;;8.10;99.90;;;;;;5073750;28;20235;-83
2023/11/17 03:00:10;;;;;;;6.88;5.78;;;8.10;99.90;;;;;;5072397;28;20254;-82
2023/11/17 03:02:39;;;;;;;3.45;2.90;;;8.10;99.90;;;;;;5073626;28;20224;-83
2023/11/17 03:05:08;;;;;;;3.47;3.17;;;8.10;99.90;;;;;;5072833;28;20319;-83
2023/11/17 03:07:36;;;;;;;3.47;3.17;;;8.20;99.90;;;;;;5072580;28;20601;-83
2023/11/17 03:10:05;;;;;;;4.50;4.07;;;8.20;99.90;;;;;;5073496;28;20231;-83
2023/11/17 03:12:32;;;;;;;4.53;3.25;;;8.10;99.90;;;;;;5072968;28;20238;-83
2023/11/17 03:15:00;;;;;;;3.42;2.92;;;8.10;99.90;;;;;;5072946;28;20252;-83
2023/11/17 03:17:27;;;;;;;12.15;8.73;;;8.10;99.90;;;;;;5072987;28;20231;-83
2023/11/17 03:19:55;;;;;;;4.70;4.30;;;8.00;99.90;;;;;;5073245;28;20227;-83
2023/11/17 03:22:22;;;;;;;5.05;4.65;;;8.00;99.90;;;;;;5072655;28;20695;-83
2023/11/17 03:24:49;;;;;;;5.63;4.63;;;8.00;99.90;;;;;;5073237;28;20277;-83
2023/11/17 03:27:16;;;;;;;4.80;4.40;;;8.10;99.90;;;;;;5072826;28;20607;-81
2023/11/17 03:29:46;;;;;;;4.28;3.97;;;8.00;99.90;;;;;;5073418;28;20223;-81
2023/11/17 03:32:13;;;;;;;5.50;4.65;;;8.10;99.90;;;;;;5059593;28;20224;-84
2023/11/17 03:34:41;;;;;;;4.10;3.65;;;8.10;99.90;;;;;;5072410;28;20231;-84
2023/11/17 03:37:12;;;;;;;6.07;5.40;;;8.10;99.90;;;;;;5073511;28;20568;-81
2023/11/17 03:39:41;;;;;;;4.18;3.85;;;8.10;99.90;;;;;;5073100;28;20220;-81
2023/11/17 03:42:12;;;;;;;4.50;4.20;;;8.00;99.90;;;;;;5073368;28;20228;-81
2023/11/17 03:44:40;;;;;;;6.20;5.35;;;8.00;99.90;;;;;;5072960;28;20323;-81
2023/11/17 03:47:08;;;;;;;5.18;4.78;;;8.00;99.90;;;;;;5072828;28;20683;-83
2023/11/17 03:49:35;;;;;;;4.70;4.30;;;8.00;99.90;;;;;;5072357;28;20227;-83
2023/11/17 03:52:03;;;;;;;6.15;5.05;;;8.00;99.90;;;;;;5073378;28;20258;-83
2023/11/17 03:54:32;;;;;;;5.22;4.72;;;8.00;99.90;;;;;;5071933;28;20224;-83
2023/11/17 03:57:00;;;;;;;5.25;4.85;;;8.00;99.90;;;;;;5073038;28;20713;-83
2023/11/17 03:59:29;;;;;;;5.30;4.80;;;7.90;99.90;;;;;;5072561;28;20582;-83
2023/11/17 04:02:01;;;;;;;5.70;5.20;;;8.00;99.90;;;;;;5073221;28;20223;-82
2023/11/17 04:04:29;;;;;;;5.78;5.30;;;8.00;99.90;;;;;;5072516;28;20228;-83
2023/11/17 04:06:57;;;;;;;5.68;5.10;;;8.00;99.90;;;;;;5072953;28;20239;-81
2023/11/17 04:09:25;;;;;;;4.82;4.38;;;8.00;99.90;;;;;;5072925;28;20561;-83
2023/11/17 04:11:54;;;;;;;5.43;4.93;;;8.00;99.90;;;;;;5070397;28;20231;-83
2023/11/17 04:14:22;;;;;;;7.05;6.05;;;8.00;99.90;;;;;;5072178;28;20220;-82
2023/11/17 04:16:49;;;;;;;5.25;4.65;;;8.00;99.90;;;;;;5072870;28;20222;-81
2023/11/17 04:19:17;;;;;;;5.32;4.82;;;8.00;99.90;;;;;;5072565;28;20250;-82
2023/11/17 04:21:45;;;;;;;5.38;4.88;;;8.00;99.90;;;;;;5073096;28;20258;-83
2023/11/17 04:24:13;;;;;;;5.13;4.72;;;7.90;99.90;;;;;;5072340;28;20227;-83
2023/11/17 04:26:40;;;;;;;5.57;5.18;;;7.90;99.90;;;;;;5072577;28;20224;-83
2023/11/17 04:29:08;;;;;;;5.97;5.47;;;7.90;99.90;;;;;;5060192;28;20228;-84
2023/11/17 04:31:34;;;;;;;5.30;4.90;;;7.90;99.90;;;;;;5072375;28;20307;-83
2023/11/17 04:34:01;;;;;;;5.22;4.82;;;7.90;99.90;;;;;;5072753;28;20270;-81
2023/11/17 04:36:32;;;;;;;5.10;4.70;;;7.80;99.90;;;;;;5072373;28;20383;-83
2023/11/17 04:38:59;;;;;;;4.40;4.03;;;7.80;99.90;;;;;;5073781;28;20223;-81
2023/11/17 04:41:27;;;;;;;5.78;5.15;;;7.80;99.90;;;;;;5072003;28;20220;-81
2023/11/17 04:43:54;;;;;;;5.20;4.80;;;7.80;99.90;;;;;;5072759;28;20216;-82
2023/11/17 04:46:23;;;;;;;5.55;5.15;;;7.80;99.90;;;;;;5072016;28;20232;-84
2023/11/17 04:48:51;;;;;;;5.15;4.75;;;7.80;99.90;;;;;;5072679;28;20677;-84
2023/11/17 04:51:18;;;;;;;4.60;4.20;;;7.80;99.90;;;;;;5072320;28;20277;-84
2023/11/17 04:53:45;;;;;;;5.40;4.90;;;7.90;99.90;;;;;;5072511;28;20725;-84
2023/11/17 04:56:14;;;;;;;5.13;4.72;;;7.80;99.90;;;;;;5072725;28;20307;-83
2023/11/17 04:58:41;;;;;;;4.97;4.53;;;7.90;99.90;;;;;;5072573;28;20223;-83
2023/11/17 05:01:10;;;;;;;5.90;5.05;;;7.90;99.90;;;;;;5076314;28;20297;-81
2023/11/17 05:03:40;;;;;;;6.40;5.80;;;7.90;99.90;;;;;;5071945;28;20300;-82
2023/11/17 05:06:11;;;;;;;5.95;4.75;;;7.90;99.90;;;;;;5075607;28;20227;-82
2023/11/17 05:08:39;;;;;;;4.57;4.15;;;7.90;99.90;;;;;;5075884;28;20270;-81
2023/11/17 05:11:06;;;;;;;6.32;5.82;;;7.90;99.90;;;;;;5075756;28;20224;-83
2023/11/17 05:13:34;;;;;;;5.97;5.00;;;7.90;99.90;;;;;;5077001;28;20297;-83
2023/11/17 05:16:03;;;;;;;11.73;7.63;;;7.90;99.90;;;;;;5074998;28;20228;-81
2023/11/17 05:18:30;;;;;;;5.20;4.80;;;7.80;99.90;;;;;;5074766;28;20228;-81
2023/11/17 05:20:59;;;;;;;4.95;4.55;;;7.90;99.90;;;;;;5075289;28;20749;-81
2023/11/17 05:23:25;;;;;;;5.63;5.13;;;7.90;99.90;;;;;;5075290;28;20227;-84
2023/11/17 05:25:52;;;;;;;4.25;3.95;;;7.90;99.90;;;;;;5076014;28;20232;-82
2023/11/17 05:28:19;;;;;;;5.32;4.93;;;7.90;99.90;;;;;;5074901;28;20281;-82
2023/11/17 05:30:47;;;;;;;6.20;5.60;;;7.90;99.90;;;;;;5075720;28;20259;-81
2023/11/17 05:33:17;;;;;;;5.40;4.90;;;7.90;99.90;;;;;;5074934;28;20580;-81
2023/11/17 05:35:45;;;;;;;6.38;5.20;;;7.90;99.90;;;;;;5075643;28;20247;-83
2023/11/17 05:38:13;;;;;;;4.65;4.25;;;7.90;99.90;;;;;;5075549;28;20311;-81
2023/11/17 05:40:40;;;;;;;5.25;4.75;;;7.80;99.90;;;;;;5075287;28;20297;-83
2023/11/17 05:43:07;;;;;;;4.50;4.10;;;7.70;99.90;;;;;;5079162;28;20255;-82
2023/11/17 05:45:34;;;;;;;5.97;5.40;;;7.70;99.90;;;;;;5067425;28;20228;-81
2023/11/17 05:48:02;;;;;;;4.95;4.45;;;7.70;99.90;;;;;;5074891;28;20216;-84
2023/11/17 05:50:29;;;;;;;4.50;4.10;;;7.70;99.90;;;;;;5075208;28;20315;-83
2023/11/17 05:52:56;;;;;;;5.22;4.72;;;7.70;99.90;;;;;;5074621;28;20561;-83
2023/11/17 05:55:24;;;;;;;4.30;3.90;;;7.80;99.90;;;;;;5074493;28;20307;-83
2023/11/17 05:57:51;;;;;;;5.82;4.22;;;7.70;99.90;;;;;;5074478;28;20262;-83
2023/11/17 06:00:19;;;;;;;5.28;4.38;;;7.70;99.90;;;;;;5071819;28;20673;-81
2023/11/17 06:02:46;;;;;;;4.97;4.57;;;7.70;99.90;;;;;;5075243;28;20544;-83
2023/11/17 06:05:17;;;;;;;5.63;5.05;;;7.70;99.90;;;;;;5066051;28;20235;-83
2023/11/17 06:07:45;;;;;;;5.80;5.30;;;7.80;99.90;;;;;;5075472;28;20306;-84
2023/11/17 06:10:14;;;;;;;7.28;5.88;;;7.70;99.90;;;;;;5073633;28;20289;-84
2023/11/17 06:12:42;;;;;;;7.50;6.80;;;7.70;99.90;;;;;;5074735;28;20246;-81
2023/11/17 06:15:11;;;;;;;5.18;4.68;;;7.70;99.90;;;;;;5075045;28;20299;-82
2023/11/17 06:17:38;;;;;;;4.82;4.50;;;7.70;99.90;;;;;;5063081;28;20557;-82
2023/11/17 06:20:08;;;;;;;3.92;3.58;;;7.70;99.90;;;;;;5074643;28;20220;-81
2023/11/17 06:22:35;;;;;;;8.07;6.45;;;7.70;99.90;;;;;;5073789;28;20251;-82
2023/11/17 06:25:08;;;;;;;4.32;4.03;;;7.60;99.90;;;;;;5074592;28;20212;-82
2023/11/17 06:27:36;;;;;;;5.50;3.70;;;7.60;99.90;;;;;;5074089;28;20227;-82
2023/11/17 06:30:06;;;;;;;5.60;5.07;;;7.60;99.90;;;;;;5074674;28;20216;-83
2023/11/17 06:32:33;;;;;;;12.30;9.68;;;7.60;99.90;;;;;;5074247;28;20243;-84
2023/11/17 06:35:00;;;;;;;6.57;5.97;;;7.70;99.90;;;;;;5075426;28;20247;-83
2023/11/17 06:37:27;;;;;;;5.53;4.85;;;7.70;99.90;;;;;;5074609;28;20232;-84
2023/11/17 06:39:54;;;;;;;5.35;4.88;;;7.70;99.90;;;;;;5075642;28;20314;-85
2023/11/17 06:42:22;;;;;;;5.13;4.35;;;7.70;99.90;;;;;;5074088;28;20228;-85
2023/11/17 06:44:50;;;;;;;6.38;5.88;;;7.70;99.90;;;;;;5075293;28;20235;-84
2023/11/17 06:47:19;;;;;;;4.10;3.50;;;7.80;99.90;;;;;;5078352;28;20224;-84
2023/11/17 06:49:47;;;;;;;17.35;8.80;;;7.80;99.90;;;;;;5074433;28;20630;-81
2023/11/17 06:52:14;;;;;;;8.27;4.88;;;7.80;99.90;;;;;;5075190;28;20552;-80
2023/11/17 06:54:43;;;;;;;5.97;5.40;;;7.80;99.90;;;;;;5075268;28;20227;-81
2023/11/17 06:57:10;;;;;;;8.30;6.00;;;7.80;99.90;;;;;;5072630;28;20295;-82
2023/11/17 06:59:37;;;;;;;6.35;5.65;;;7.70;99.90;;;;;;5076030;28;20228;-83
2023/11/17 07:02:06;;;;;;;8.02;6.55;;;7.70;99.90;;;;;;5074263;28;20599;-81
2023/11/17 07:04:35;;;;;;;11.57;9.57;;;7.70;99.90;;;;;;5072230;28;20285;-81
2023/11/17 07:07:04;;;;;;;9.63;8.20;;;7.80;99.90;;;;;;5073688;28;20220;-80
2023/11/17 07:09:32;;;;;;;9.77;7.60;;;7.80;99.90;;;;;;5073125;28;20310;-83
2023/11/17 07:12:01;;;;;;;6.45;5.80;;;7.80;99.90;;;;;;5075445;28;20662;-80
2023/11/17 07:14:30;;;;;;;4.88;4.47;;;7.80;99.90;;;;;;5073260;28;20596;-83
2023/11/17 07:16:58;;;;;;;6.00;4.32;;;7.80;99.90;;;;;;5076025;28;20265;-83
2023/11/17 07:19:25;;;;;;;5.55;4.88;;;7.80;99.90;;;;;;5073725;28;20235;-82
2023/11/17 07:21:55;;;;;;;5.57;4.80;;;7.80;99.90;;;;;;5073420;28;20270;-82
2023/11/17 07:24:22;;;;;;;6.18;5.40;;;7.80;99.90;;;;;;5073757;28;20242;-82
2023/11/17 07:26:49;;;;;;;5.45;4.95;;;7.90;99.90;;;;;;5073116;28;20220;-83
2023/11/17 07:29:16;;;;;;;5.30;4.50;;;7.90;99.90;;;;;;5073563;28;20298;-82
2023/11/17 07:31:44;;;;;;;4.70;4.32;;;7.90;99.90;;;;;;5073064;28;20247;-81
2023/11/17 07:34:15;;;;;;;5.00;4.60;;;7.90;99.90;;;;;;5073287;28;20303;-81
2023/11/17 07:36:45;;;;;;;6.45;5.85;;;7.90;99.90;;;;;;5072478;28;20302;-81
2023/11/17 07:39:14;;;;;;;10.90;6.53;;;7.80;99.90;;;;;;5073192;28;20285;-81
2023/11/17 07:41:42;;;;;;;6.10;5.57;;;7.90;99.90;;;;;;5072157;28;20246;-80
2023/11/17 07:44:11;;;;;;;5.30;4.85;;;7.90;99.90;;;;;;5073131;28;20223;-81
2023/11/17 07:46:46;;;;;;;5.13;4.82;;;7.90;99.90;;;;;;5072380;28;20226;-81
2023/11/17 07:49:17;;;;;;;6.70;6.07;;;7.90;99.90;;;;;;5073248;28;20314;-81
2023/11/17 07:51:47;;;;;;;6.18;5.57;;;8.00;99.90;;;;;;5073097;28;20231;-81
2023/11/17 07:55:07;;;;;;;7.55;5.45;;;8.00;99.90;;;;;;5068566;28;20259;-81
2023/11/17 07:57:36;;;;;;;7.13;5.80;;;7.90;99.90;;;;;;5072320;28;20275;-81
2023/11/17 08:00:11;;;;;;;8.00;7.30;;;7.90;99.90;;;;;;5072941;28;20248;-81
2023/11/17 08:02:39;;;;;;;7.28;5.95;;;7.90;99.90;;;;;;5072163;28;20239;-84
2023/11/17 08:05:10;;;;;;;6.18;5.57;;;7.90;99.90;;;;;;5075013;28;20261;-84
2023/11/17 08:07:37;;;;;;;7.25;6.55;;;7.90;99.90;;;;;;5072966;28;20220;-84
2023/11/17 08:10:06;;;;;;;8.13;5.45;;;7.90;99.90;;;;;;5073383;28;20243;-84
2023/11/17 08:12:35;;;;;;;6.28;5.28;;;7.90;99.90;;;;;;5073221;28;20224;-84
2023/11/17 08:15:04;;;;;;;4.55;4.10;;;7.90;99.90;;;;;;5072477;28;20532;-80
2023/11/17 08:17:31;;;;;;;7.90;5.28;;;8.00;99.90;;;;;;5072281;28;20220;-81
2023/11/17 08:19:59;;;;;;;5.25;4.40;;;8.10;99.90;;;;;;5073265;28;20307;-81
2023/11/17 08:22:29;;;;;;;4.95;4.47;;;8.10;99.90;;;;;;5073096;28;20236;-84
2023/11/17 08:25:04;;;;;;;4.53;4.13;;;8.10;99.90;;;;;;5046445;28;20222;-84
2023/11/17 08:27:31;;;;;;;5.20;4.80;;;8.20;99.90;;;;;;5065107;28;20311;-81
2023/11/17 08:30:00;;;;;;;5.10;4.75;;;8.10;99.90;;;;;;5077516;28;20220;-80
2023/11/17 08:32:27;;;;;;;5.75;4.80;;;8.10;99.90;;;;;;5073130;28;20315;-81
2023/11/17 08:34:58;;;;;;;4.65;4.25;;;8.10;99.90;;;;;;5075494;28;20731;-80
2023/11/17 08:37:25;;;;;;;5.90;5.40;;;8.10;99.90;;;;;;5074992;28;20219;-80
2023/11/17 08:39:52;;;;;;;5.55;4.95;;;8.10;99.90;;;;;;5076087;28;20235;-84
2023/11/17 08:42:23;;;;;;;5.60;5.10;;;8.20;99.90;;;;;;5076788;28;20602;-84
2023/11/17 08:44:50;;;;;;;6.20;5.60;;;8.20;99.90;;;;;;5076268;28;20228;-84
2023/11/17 08:47:19;;;;;;;7.00;6.40;;;8.20;99.90;;;;;;5076573;28;20228;-84
2023/11/17 08:50:08;;;;;;;6.63;6.03;;;8.30;99.90;;;;;;5076056;28;20369;-83
2023/11/17 08:52:57;;;;;;;7.35;5.13;;;8.30;99.90;;;;;;5069735;28;20235;-84
2023/11/17 08:55:28;;;;;;;5.07;4.60;;;8.30;99.90;;;;;;5077518;28;20692;-83
2023/11/17 08:57:59;;;;;;;5.68;5.18;;;8.30;99.90;;;;;;5075222;28;20231;-81
2023/11/17 09:03:30;;;;;;;4.95;4.55;;;8.30;99.90;;;;;;5075944;28;20573;-81
2023/11/17 09:05:58;;;;;;;4.72;4.32;;;8.30;99.90;;;;;;5076157;28;20307;-84
2023/11/17 09:08:27;;;;;;;5.38;4.88;;;8.30;99.90;;;;;;5076065;28;20662;-81
2023/11/17 09:10:54;;;;;;;5.45;5.03;;;8.20;99.90;;;;;;5076877;28;20244;-81
2023/11/17 09:13:24;;;;;;;7.05;6.45;;;8.20;99.90;;;;;;5076216;28;20236;-84
2023/11/17 09:15:52;;;;;;;9.88;7.22;;;8.30;99.90;;;;;;5075867;28;20300;-84
2023/11/17 09:18:19;;;;;;;6.22;5.50;;;8.20;99.90;;;;;;5076350;28;20219;-84
2023/11/17 09:20:48;;;;;;;5.38;4.88;;;8.20;99.90;;;;;;5078648;28;20281;-84
2023/11/17 09:23:21;;;;;;;6.80;6.03;;;8.30;99.90;;;;;;5079955;28;20224;-83
2023/11/17 09:25:49;;;;;;;4.88;4.35;;;8.30;99.90;;;;;;5077907;28;20242;-81
2023/11/17 09:28:16;;;;;;;6.72;6.03;;;8.30;99.90;;;;;;5075323;28;20277;-81
2023/11/17 09:30:43;;;;;;;4.93;4.40;;;8.40;99.90;;;;;;5075132;28;20231;-82
2023/11/17 09:33:11;;;;;;;5.13;4.72;;;8.40;99.90;;;;;;5071978;28;20228;-81
2023/11/17 09:35:38;;;;;;;4.50;3.90;;;8.40;99.90;;;;;;5074697;28;20361;-82
2023/11/17 09:38:11;;;;;;;3.72;3.42;;;8.40;99.90;;;;;;5061810;28;21035;-81
2023/11/17 09:40:42;;;;;;;4.70;4.10;;;8.40;99.90;;;;;;5075582;28;20228;-82
2023/11/17 09:43:18;;;;;;;4.80;4.38;;;8.40;99.90;;;;;;5075375;28;20224;-81
2023/11/17 09:45:51;;;;;;;9.88;7.57;;;8.40;99.90;;;;;;5074793;28;20318;-81
2023/11/17 09:48:20;;;;;;;7.78;6.90;;;8.40;99.90;;;;;;5074370;28;20280;-81
2023/11/17 09:50:50;;;;;;;9.85;8.23;;;8.40;99.90;;;;;;5074208;28;20220;-82
2023/11/17 09:53:20;;;;;;;4.65;4.25;;;8.50;99.90;;;;;;5075470;28;20290;-81
2023/11/17 09:55:49;;;;;;;5.15;4.25;;;8.50;99.90;;;;;;5062791;28;20231;-82
2023/11/17 09:58:16;;;;;;;4.80;4.40;;;8.50;99.90;;;;;;5074905;28;20228;-82
2023/11/17 10:01:04;;;;;;;5.10;4.70;;;8.50;99.90;;;;;;5064088;28;20232;-81
2023/11/17 10:03:34;;;;;;;8.35;7.50;;;8.60;99.90;;;;;;5072455;28;20224;-82
2023/11/17 10:06:33;;;;;;;6.65;6.05;;;8.60;99.90;;;;;;5066190;28;20297;-81
2023/11/17 10:09:02;;;;;;;5.70;4.30;;;8.60;99.90;;;;;;5075826;28;20301;-84
2023/11/17 10:11:30;;;;;;;8.93;7.70;;;8.60;99.90;;;;;;5074431;28;20232;-84
2023/11/17 10:14:01;;;;;;;5.10;4.70;;;8.60;99.90;;;;;;5064294;28;20232;-84
2023/11/17 10:16:30;;;;;;;4.80;4.22;;;8.60;99.90;;;;;;5074536;28;20220;-84
2023/11/17 10:18:59;;;;;;;5.03;4.53;;;8.60;99.90;;;;;;5072464;28;20220;-84
2023/11/17 10:21:29;;;;;;;5.35;4.95;;;8.60;99.90;;;;;;5074581;28;20223;-84
2023/11/17 10:23:56;;;;;;;8.10;6.38;;;8.50;99.90;;;;;;5073027;28;20258;-84
2023/11/17 10:26:29;;;;;;;5.68;5.28;;;8.50;99.90;;;;;;5075086;28;20219;-85
2023/11/17 10:28:59;;;;;;;4.70;4.30;;;8.50;99.90;;;;;;5073435;28;20224;-84
2023/11/17 10:31:28;;;;;;;6.43;5.75;;;8.60;99.90;;;;;;5063508;28;20615;-84
2023/11/17 10:34:03;;;;;;;13.35;11.55;;;8.60;99.90;;;;;;5063540;28;20232;-84
2023/11/17 10:39:58;;;;;;;5.20;4.75;;;8.60;99.90;;;;;;5070257;28;20628;-85
2023/11/17 10:43:15;;;;;;;4.88;4.32;;;8.70;99.90;;;;;;5071798;28;20230;-84
2023/11/17 10:45:45;;;;;;;4.32;3.92;;;8.70;99.90;;;;;;5074108;28;20331;-85
2023/11/17 10:48:22;;;;;;;4.63;4.22;;;8.70;99.90;;;;;;5071557;28;20674;-82
2023/11/17 10:50:51;;;;;;;4.40;3.97;;;8.70;99.90;;;;;;5073944;28;20224;-81
2023/11/17 10:56:01;;;;;;;4.45;4.05;;;8.70;99.90;;;;;;5058796;28;20653;-81
2023/11/17 10:58:29;;;;;;;4.90;4.22;;;8.70;99.90;;;;;;5073519;28;20224;-81
2023/11/17 11:00:57;;;;;;;4.25;3.95;;;8.70;99.90;;;;;;5073346;28;20224;-84
2023/11/17 11:03:29;;;;;;;6.60;4.00;;;8.70;99.90;;;;;;5074008;28;20277;-84
2023/11/17 11:06:01;;;;;;;4.70;4.30;;;8.70;99.90;;;;;;5072137;28;20228;-83
2023/11/17 11:08:30;;;;;;;4.07;3.67;;;8.70;99.90;;;;;;5072592;28;20235;-83
2023/11/17 11:10:58;;;;;;;3.88;3.58;;;8.80;99.90;;;;;;5073990;28;20219;-81
2023/11/17 11:13:28;;;;;;;3.35;3.05;;;8.80;99.90;;;;;;5071171;28;20312;-84
2023/11/17 11:16:07;;;;;;;4.60;3.92;;;8.80;99.90;;;;;;5073942;28;20337;-84
2023/11/17 11:18:36;;;;;;;3.10;2.90;;;8.80;99.90;;;;;;5059036;28;20327;-84
2023/11/17 11:21:07;;;;;;;3.75;3.45;;;8.80;99.90;;;;;;5068029;28;20251;-84
2023/11/17 11:23:35;;;;;;;4.10;3.70;;;8.80;99.90;;;;;;5061940;28;20220;-84
2023/11/17 11:26:05;;;;;;;3.80;3.40;;;8.90;99.90;;;;;;5071976;28;20227;-84
2023/11/17 11:28:32;;;;;;;3.45;3.25;;;8.90;99.90;;;;;;5039953;28;20267;-84
2023/11/17 11:31:16;;;;;;;7.03;5.47;;;9.00;99.90;;;;;;5052752;28;20303;-85
2023/11/17 11:33:44;;;;;;;3.78;3.47;;;9.00;99.90;;;;;;5064827;28;20231;-85
2023/11/17 11:36:12;;;;;;;5.32;3.45;;;9.00;99.90;;;;;;5048510;28;20251;-85
2023/11/17 11:38:56;;;;;;;5.18;3.63;;;9.00;99.90;;;;;;5052026;28;20286;-83
2023/11/17 11:41:26;;;;;;;4.63;3.63;;;9.00;99.90;;;;;;5065705;28;20219;-84
2023/11/17 11:43:56;;;;;;;6.10;4.78;;;9.00;99.90;;;;;;5054877;28;20313;-85
2023/11/17 11:46:25;;;;;;;4.63;3.78;;;9.00;99.90;;;;;;5045687;28;20251;-83
2023/11/17 11:48:58;;;;;;;4.40;3.75;;;9.00;99.90;;;;;;5062752;28;20265;-83
2023/11/17 11:51:36;;;;;;;3.40;3.10;;;9.10;99.90;;;;;;5067097;28;20215;-84
2023/11/17 11:54:08;;;;;;;3.88;3.50;;;9.00;99.90;;;;;;5066059;28;20219;-80
2023/11/17 11:56:42;;;;;;;3.75;3.25;;;9.00;99.90;;;;;;5070100;28;20601;-82
2023/11/17 11:59:11;;;;;;;3.15;2.95;;;9.00;99.90;;;;;;5072386;28;20246;-80
2023/11/17 12:01:39;;;;;;;2.70;2.50;;;9.00;99.90;;;;;;5057596;28;20242;-80
2023/11/17 12:04:11;;;;;;;3.42;3.13;;;9.10;99.90;;;;;;5070501;28;20228;-83
2023/11/17 12:06:40;;;;;;;4.45;4.05;;;9.00;99.90;;;;;;5063047;28;20658;-81
2023/11/17 12:09:08;;;;;;;3.58;3.28;;;9.10;99.90;;;;;;5071475;28;20222;-81
2023/11/17 12:11:38;;;;;;;4.25;3.85;;;9.10;99.90;;;;;;5080696;28;20304;-82
2023/11/17 12:14:07;;;;;;;4.60;4.22;;;9.10;99.90;;;;;;5071060;28;20219;-82
2023/11/17 12:16:46;;;;;;;3.50;3.20;;;9.10;99.90;;;;;;5064094;28;20651;-82
2023/11/17 12:19:17;;;;;;;4.22;2.70;;;9.10;99.90;;;;;;5060409;28;20269;-81
2023/11/17 12:24:32;;;;;;;4.60;3.55;;;9.10;99.90;;;;;;5059435;28;20333;-82
2023/11/17 12:27:00;;;;;;;3.20;2.90;;;9.10;99.90;;;;;;5073303;28;20270;-83
2023/11/17 12:29:39;;;;;;;6.03;5.25;;;9.10;99.90;;;;;;5067155;28;20257;-82
2023/11/17 12:32:07;;;;;;;4.45;4.03;;;9.10;99.90;;;;;;5067578;28;20223;-82
2023/11/17 12:34:41;;;;;;;6.10;5.32;;;9.10;99.90;;;;;;5045614;28;20680;-83
2023/11/17 12:37:13;;;;;;;4.75;4.25;;;9.10;99.90;;;;;;5066829;28;20220;-82
2023/11/17 12:39:44;;;;;;;3.63;3.33;;;9.20;99.90;;;;;;5064845;28;20240;-83
2023/11/17 12:42:16;;;;;;;3.47;3.17;;;9.10;99.90;;;;;;5069202;28;20235;-82
2023/11/17 12:44:44;;;;;;;7.28;4.18;;;9.10;99.90;;;;;;5075654;28;20849;-82
2023/11/17 12:47:12;;;;;;;4.93;4.43;;;9.10;99.90;;;;;;5073320;28;20310;-83
2023/11/17 12:49:57;;;;;;;5.32;4.82;;;9.10;99.90;;;;;;5075230;28;20642;-82
2023/11/17 12:52:25;;;;;;;4.22;3.90;;;9.20;99.90;;;;;;5074669;28;20227;-83
2023/11/17 12:55:07;;;;;;;4.72;4.32;;;9.10;99.90;;;;;;5074634;28;20219;-82
2023/11/17 12:57:34;;;;;;;4.78;4.38;;;9.20;99.90;;;;;;5075389;28;20302;-82
2023/11/17 13:00:16;;;;;;;4.20;3.90;;;9.20;99.90;;;;;;5076190;28;20303;-82
2023/11/17 13:02:43;;;;;;;4.13;3.72;;;9.20;99.90;;;;;;5057403;28;20274;-82
2023/11/17 13:05:14;;;;;;;4.20;3.33;;;9.20;99.90;;;;;;5055943;28;20245;-82
2023/11/17 13:07:43;;;;;;;4.05;3.65;;;9.30;99.90;;;;;;5055445;28;20235;-82
2023/11/17 13:13:09;;;;;;;4.13;3.78;;;9.30;99.90;;;;;;5067328;28;20238;-82
2023/11/17 13:15:39;;;;;;;3.75;3.45;;;9.30;99.90;;;;;;5074897;28;20220;-82
2023/11/17 13:18:08;;;;;;;3.58;3.28;;;9.40;99.90;;;;;;5074586;28;20243;-82
2023/11/17 13:20:40;;;;;;;4.07;3.78;;;9.40;99.90;;;;;;5063667;28;20571;-85
2023/11/17 13:23:07;;;;;;;6.90;5.05;;;9.50;99.90;;;;;;5046028;28;20221;-82
2023/11/17 13:25:35;;;;;;;17.00;11.00;;;9.50;99.90;;;;;;5055685;28;20259;-82